createdAt,value
2022-12-22T00:02:35.247Z,974.28
2022-12-22T00:08:06.174Z,974.3
2022-12-22T00:13:37.883Z,974.07
2022-12-22T00:19:09.862Z,973.82
2022-12-22T00:24:41.526Z,973.91
2022-12-22T00:30:14.270Z,973.59
2022-12-22T00:35:50.743Z,973.6
2022-12-22T00:41:21.239Z,973.86
2022-12-22T00:46:52.689Z,974.03
2022-12-22T00:52:24.343Z,973.82
2022-12-22T00:57:57.259Z,973.57
2022-12-22T01:03:28.385Z,973.62
2022-12-22T01:09:00.104Z,973.55
2022-12-22T01:14:32.030Z,973.59
2022-12-22T01:20:03.699Z,973.4
2022-12-22T01:25:34.699Z,973.71
2022-12-22T01:31:06.986Z,973.45
2022-12-22T01:36:44.783Z,973.58
2022-12-22T01:42:16.523Z,972.95
2022-12-22T01:47:48.190Z,972.86
2022-12-22T01:53:20.954Z,972.68
2022-12-22T01:58:51.964Z,972.6
2022-12-22T02:04:23.109Z,972.75
2022-12-22T02:09:54.977Z,972.65
2022-12-22T02:15:26.917Z,973.05
2022-12-22T02:20:58.363Z,973.17
2022-12-22T02:26:30.372Z,973.21
2022-12-22T02:32:02.146Z,972.9
2022-12-22T02:37:38.844Z,972.89
2022-12-22T02:43:09.890Z,972.72
2022-12-22T02:48:41.576Z,972.82
2022-12-22T02:54:13.449Z,973.35
2022-12-22T02:59:44.905Z,973.27
2022-12-22T03:05:16.893Z,973.27
2022-12-22T03:10:48.544Z,973.21
2022-12-22T03:16:20.329Z,973.22
2022-12-22T03:21:51.814Z,973.2
2022-12-22T03:27:23.786Z,972.9
2022-12-22T03:32:55.495Z,972.86
2022-12-22T03:38:31.507Z,972.53
2022-12-22T03:44:03.043Z,972.77
2022-12-22T03:49:34.831Z,972.85
2022-12-22T03:55:07.303Z,973.06
2022-12-22T04:00:38.168Z,972.99
2022-12-22T04:06:10.324Z,973.36
2022-12-22T04:11:41.866Z,973.08
2022-12-22T04:17:13.305Z,973.19
2022-12-22T04:22:45.352Z,973.32
2022-12-22T04:28:17.021Z,973.2
2022-12-22T04:33:49.014Z,973.14
2022-12-22T04:39:25.016Z,972.96
2022-12-22T04:44:56.669Z,973.01
2022-12-22T04:50:28.435Z,973.0
2022-12-22T04:55:59.903Z,972.86
2022-12-22T05:01:32.234Z,973.17
2022-12-22T05:07:03.539Z,972.87
2022-12-22T05:12:35.394Z,972.58
2022-12-22T05:18:06.821Z,972.63
2022-12-22T05:23:39.574Z,972.5
2022-12-22T05:29:10.589Z,972.41
2022-12-22T05:34:42.000Z,972.63
2022-12-22T05:40:20.393Z,972.91
2022-12-22T05:45:51.708Z,972.89
2022-12-22T05:51:23.332Z,972.7
2022-12-22T05:56:55.644Z,972.55
2022-12-22T06:02:27.477Z,972.41
2022-12-22T06:07:58.847Z,972.45
2022-12-22T06:13:30.313Z,972.41
2022-12-22T06:19:02.950Z,972.3
2022-12-22T06:24:33.599Z,972.48
2022-12-22T06:30:05.477Z,972.49
2022-12-22T06:35:38.016Z,972.67
2022-12-22T06:41:13.205Z,972.65
2022-12-22T06:46:45.488Z,972.75
2022-12-22T06:52:17.166Z,972.96
2022-12-22T06:57:48.690Z,972.93
2022-12-22T07:03:21.494Z,972.96
2022-12-22T07:08:52.068Z,972.98
2022-12-22T07:14:24.231Z,973.5
2022-12-22T07:19:55.495Z,973.05
2022-12-22T07:25:27.968Z,973.05
2022-12-22T07:30:59.247Z,973.14
2022-12-22T07:36:30.881Z,973.24
2022-12-22T07:42:07.209Z,972.92
2022-12-22T07:47:39.852Z,973.09
2022-12-22T07:53:10.252Z,973.47
2022-12-22T07:58:42.622Z,973.04
2022-12-22T08:04:14.346Z,972.85
2022-12-22T08:09:45.656Z,972.74
2022-12-22T08:15:17.116Z,972.9
2022-12-22T08:20:48.976Z,972.84
2022-12-22T08:26:20.662Z,973.07
2022-12-22T08:31:52.742Z,973.05
2022-12-22T08:37:24.056Z,973.24
2022-12-22T08:43:00.154Z,973.21
2022-12-22T08:48:31.627Z,973.4
2022-12-22T08:54:07.289Z,973.48
2022-12-22T08:59:35.129Z,973.22
2022-12-22T09:05:06.857Z,973.46
2022-12-22T09:10:38.659Z,973.66
2022-12-22T09:16:10.539Z,973.84
2022-12-22T09:21:42.117Z,973.5
2022-12-22T09:27:14.252Z,972.81
2022-12-22T09:32:45.526Z,972.73
2022-12-22T09:38:18.142Z,972.89
2022-12-22T09:43:55.553Z,972.68
2022-12-22T09:49:27.745Z,972.63
2022-12-22T09:54:58.864Z,972.73
2022-12-22T10:00:31.539Z,972.69
2022-12-22T10:06:02.659Z,972.8
2022-12-22T10:11:34.036Z,972.66
2022-12-22T10:17:06.020Z,973.02
2022-12-22T10:22:37.719Z,972.8
2022-12-22T10:28:09.631Z,973.12
2022-12-22T10:33:48.386Z,973.36
2022-12-22T10:39:13.211Z,973.38
2022-12-22T10:44:48.880Z,972.97
2022-12-22T10:50:20.448Z,973.05
2022-12-22T10:55:52.251Z,973.49
2022-12-22T11:01:24.089Z,973.54
2022-12-22T11:06:55.576Z,973.76
2022-12-22T11:12:27.244Z,973.97
2022-12-22T11:17:59.240Z,974.13
2022-12-22T11:23:30.881Z,974.72
2022-12-22T11:29:02.743Z,974.64
2022-12-22T11:34:34.297Z,974.68
2022-12-22T11:40:05.953Z,974.43
2022-12-22T11:45:44.701Z,974.88
2022-12-22T11:51:16.560Z,974.93
2022-12-22T11:56:48.357Z,975.08
2022-12-22T12:02:19.847Z,975.1
2022-12-22T12:07:51.436Z,974.98
2022-12-22T12:13:37.813Z,975.5
2022-12-22T12:18:54.643Z,975.87
2022-12-22T12:24:26.341Z,976.0
2022-12-22T12:30:39.574Z,976.04
2022-12-22T12:35:29.698Z,976.1
2022-12-22T12:41:01.454Z,975.92
2022-12-22T12:46:38.207Z,975.35
2022-12-22T12:52:09.429Z,975.16
2022-12-22T12:57:41.229Z,975.3
2022-12-22T13:04:04.448Z,975.64
2022-12-22T13:08:44.560Z,975.65
2022-12-22T13:14:16.373Z,975.83
2022-12-22T13:19:48.037Z,975.62
2022-12-22T13:25:19.688Z,975.79
2022-12-22T13:30:51.469Z,975.5
2022-12-22T13:36:23.761Z,975.68
2022-12-22T13:41:54.890Z,975.99
2022-12-22T13:47:30.872Z,976.31
2022-12-22T13:53:02.767Z,976.02
2022-12-22T13:58:34.212Z,975.99
2022-12-22T14:04:06.432Z,975.63
2022-12-22T14:09:37.672Z,975.7
2022-12-22T14:15:09.344Z,975.32
2022-12-22T14:20:41.382Z,975.72
2022-12-22T14:26:13.003Z,975.41
2022-12-22T14:31:44.975Z,975.5
2022-12-22T14:37:16.486Z,975.76
2022-12-22T14:42:48.115Z,975.39
2022-12-22T14:48:24.181Z,975.77
2022-12-22T14:53:55.960Z,975.54
2022-12-22T14:59:27.699Z,975.58
2022-12-22T15:04:59.426Z,975.24
2022-12-22T15:10:30.987Z,975.41
2022-12-22T15:16:02.994Z,975.47
2022-12-22T15:21:34.560Z,975.71
2022-12-22T15:27:06.612Z,975.61
2022-12-22T15:32:39.042Z,975.62
2022-12-22T15:38:10.318Z,975.59
2022-12-22T15:44:00.179Z,975.62
2022-12-22T15:49:17.458Z,975.32
2022-12-22T15:54:49.406Z,975.34
2022-12-22T16:00:22.288Z,975.13
2022-12-22T16:05:53.015Z,974.82
2022-12-22T16:11:24.415Z,974.86
2022-12-22T16:16:56.402Z,974.98
2022-12-22T16:22:27.801Z,974.45
2022-12-22T16:28:00.379Z,974.64
2022-12-22T16:33:31.673Z,974.26
2022-12-22T16:39:03.035Z,974.53
2022-12-22T16:45:05.861Z,974.23
2022-12-22T16:50:11.000Z,973.97
2022-12-22T16:55:43.272Z,973.91
2022-12-22T17:01:15.158Z,973.89
2022-12-22T17:06:46.223Z,974.02
2022-12-22T17:12:17.812Z,973.95
2022-12-22T17:17:49.631Z,973.8
2022-12-22T17:23:21.254Z,973.69
2022-12-22T17:28:53.462Z,973.79
2022-12-22T17:34:25.176Z,973.5
2022-12-22T17:39:57.194Z,973.59
2022-12-22T17:45:28.677Z,973.4
2022-12-22T17:51:04.496Z,973.43
2022-12-22T17:56:36.588Z,973.37
2022-12-22T18:02:08.076Z,973.4
2022-12-22T18:07:44.712Z,973.31
2022-12-22T18:13:11.116Z,973.29
2022-12-22T18:18:43.042Z,973.38
2022-12-22T18:24:14.917Z,973.1
2022-12-22T18:29:46.348Z,973.28
2022-12-22T18:35:17.989Z,973.42
2022-12-22T18:40:49.631Z,973.25
2022-12-22T18:46:22.585Z,973.09
2022-12-22T18:52:00.186Z,973.19
2022-12-22T18:57:31.344Z,973.11
2022-12-22T19:03:03.375Z,973.06
2022-12-22T19:08:45.597Z,973.18
2022-12-22T19:14:06.832Z,972.96
2022-12-22T19:19:38.611Z,973.14
2022-12-22T19:25:10.005Z,972.64
2022-12-22T19:30:41.949Z,972.85
2022-12-22T19:36:13.675Z,972.67
2022-12-22T19:41:46.284Z,972.37
2022-12-22T19:47:17.073Z,972.61
2022-12-22T19:52:53.040Z,972.24
2022-12-22T19:58:24.788Z,972.01
2022-12-22T20:03:56.403Z,972.27
2022-12-22T20:09:28.395Z,972.34
2022-12-22T20:15:00.235Z,971.99
2022-12-22T20:20:32.145Z,972.06
2022-12-22T20:26:03.448Z,971.82
2022-12-22T20:31:35.391Z,972.01
2022-12-22T20:37:06.701Z,972.0
2022-12-22T20:42:38.635Z,971.89
2022-12-22T20:48:10.132Z,971.73
2022-12-22T20:53:46.549Z,971.71
2022-12-22T20:59:18.522Z,971.74
2022-12-22T21:04:49.970Z,971.41
2022-12-22T21:10:21.641Z,971.54
2022-12-22T21:15:53.601Z,971.88
2022-12-22T21:21:25.291Z,971.35
2022-12-22T21:26:57.977Z,971.36
2022-12-22T21:32:28.233Z,971.23
2022-12-22T21:37:59.914Z,971.09
2022-12-22T21:43:31.879Z,971.25
2022-12-22T21:49:03.553Z,970.83
2022-12-22T21:54:39.932Z,970.7
2022-12-22T22:00:11.888Z,970.66
2022-12-22T22:05:43.267Z,970.04
2022-12-22T22:11:15.028Z,970.49
2022-12-22T22:16:46.994Z,970.79
2022-12-22T22:22:18.403Z,970.45
2022-12-22T22:27:50.481Z,970.21
2022-12-22T22:33:22.190Z,969.86
2022-12-22T22:38:53.641Z,969.74
2022-12-22T22:44:25.585Z,969.88
2022-12-22T22:49:57.162Z,970.31
2022-12-22T22:55:33.848Z,969.14
2022-12-22T23:01:04.909Z,969.42
2022-12-22T23:06:36.606Z,969.59
2022-12-22T23:12:08.238Z,969.59
2022-12-22T23:17:40.314Z,969.41
2022-12-22T23:23:11.610Z,969.27
2022-12-22T23:28:43.309Z,969.14
2022-12-22T23:34:15.058Z,968.91
2022-12-22T23:39:46.904Z,969.19
2022-12-22T23:45:18.489Z,968.79
2022-12-22T23:50:50.410Z,969.06
2022-12-22T23:56:26.450Z,969.16
